Thursday, January 18, 2018, 11:00 PM EST
Back to Local

KSBY, Salisbury-wicomico Cty Reg

Location: Salisbury, MD, United States Lat: 38.333
Local Time: 11:00 PM EST ( 4:00 GMT) Lon: -75.5
Time Zone: US/Eastern Elev: 52 ft

Show me the last for .
Show Coded

Time T Td Feel RH Dir Speed Gust Alt SLP Vis Weather Sky Remarks
2018-01-18 21:54 27 18 22 68 250° 5 - 30.12 30.12 10 CLR None
2018-01-18 20:54 29 17 24 60 240° 5 - 30.11 30.11 10 CLR None
2018-01-18 19:54 27 16 22 62 200° 5 - 30.10 30.11 10 CLR None
2018-01-18 18:54 28 15 - 57 - Calm - 30.09 30.10 10 CLR 6-hr Min Temp (7pm): 28.0°F
6-hr Max Temp (7pm): 39.0°F
2018-01-18 17:54 32 12 27 42 250° 5 - 30.06 30.07 10 CLR None
2018-01-18 16:54 34 13 27 41 240° 9 - 30.04 30.05 10 CLR None
2018-01-18 15:54 38 9 31 29 270° 10 - 30.03 30.04 10 CLR None
2018-01-18 14:54 38 10 30 31 300° 12 - 30.03 30.04 10 CLR None
2018-01-18 13:54 36 8 23 30 280° 16 28 30.05 30.05 10 CLR None
2018-01-18 12:54 33 9 23 35 290° 14 - 30.07 30.08 10 CLR 6-hr Min Temp (1pm): 19.9°F
6-hr Max Temp (1pm): 34.0°F
2018-01-18 11:54 33 8 20 34 310° 20 24 30.09 30.10 10 CLR Pressure falling rapidly
2018-01-18 10:54 30 9 20 40 310° 13 - 30.14 30.15 10 CLR None
2018-01-18 09:54 26 9 14 47 300° 15 - 30.16 30.16 10 CLR None
2018-01-18 08:54 23 10 8 56 320° 15 21 30.16 30.16 10 CLR None
2018-01-18 07:54 20 10 9 64 300° 9 - 30.17 30.17 10 CLR None
2018-01-18 06:54 20 10 4 64 310° 12 22 30.12 30.13 10 CLR 6-hr Min Temp (7am): 19.9°F
6-hr Max Temp (7am): 23.0°F
2018-01-18 05:54 20 9 3 61 320° 14 24 30.12 30.13 10 CLR None
2018-01-18 04:54 21 9 5 58 340° 12 21 30.16 30.16 10 OVC085 None
2018-01-18 03:54 21 9 3 58 340° 18 29 30.11 30.12 10 CLR Peak wind: 29 mph (26 kts) from 340° at 37 min
2018-01-18 02:54 22 9 5 56 330° 20 26 30.13 30.14 10 CLR None
2018-01-18 01:54 22 10 7 59 330° 18 - 30.13 30.14 10 CLR None
2018-01-18 00:54 23 10 7 56 340° 18 25 30.17 30.18 10 SCT075 BKN090 BKN120 Pressure falling rapidly
6-hr Min Temp (1am): 23.0°F
6-hr Max Temp (1am): 26.1°F
2018-01-17 23:54 24 10 8 54 350° 14 24 30.21 30.22 10 OVC085 24-hr Min Temp (12am): 24.1°F
24-hr Max Temp (12am): 37.9°F

Support USWX by starting your Amazon purchase here.